Latest Coastal Weather Observations for Gove Airport

IDD60701

Issued at 11:41 am CST Monday 20 November 2017 (issued every 10 minutes, with the page automatically refreshed every 10 minutes)

About coastal observations | Map of coastal stations | Coastal observations for NT | Marine services | Other Formats
Station Details ID: 014508 Name: GOVE AIRPORT Lat: -12.27 Lon: 136.82 Height: 51.6 m
Data from the previous 72 hours. | See also: Recent months at Gove Airport
Date/Time
CST
Temp
°C
Wind Pressure Rain since
9am
mm
Weather Cloud Vis
km
Sea
Height
m
Swell
Dir  Spd
kts
Gust
kts
hPa Trend Height
m
Period
s
Dir
20/11:30am 32.8 NE 8 13 1009.5 - 0.0 - Mostly clear 10 - - - -
20/11:00am 31.7 NE 9 14 1009.8 - 0.0 - Mostly clear 10 - - - -
20/10:30am 31.9 NNE 7 14 1010.2 - 0.0 - Partly cloudy 10 - - - -
20/10:00am 31.5 NE 7 11 1010.3 - 0.0 - Partly cloudy 10 - - - -
20/09:30am 29.9 NNE 8 11 1010.5 - 0.0 - Partly cloudy 10 - - - -
20/09:00am 30.9 ENE 7 10 1010.3 R 0.0 - Partly cloudy 10 - - - -
20/08:30am 30.1 NE 7 9 1010.2 - 0.0 - Partly cloudy 10 - - - -
20/08:00am 29.3 NE 5 7 1010.1 - 0.0 - Partly cloudy 10 - - - -
20/07:30am 28.6 ENE 6 8 1009.9 - 0.0 - Partly cloudy 10 - - - -
20/07:00am 28.0 ENE 5 6 1009.5 - 0.0 - - 10 - - - -
20/06:30am 26.8 NE 3 4 1009.0 - 0.0 - - 10 - - - -
20/06:00am 26.6 NNE 3 4 1008.5 F 0.0 - Mostly cloudy 10 - - - -
20/05:30am 26.1 NNE 3 5 1008.3 - 0.0 - - 10 - - - -
20/05:00am 25.5 CALM 0 0 1008.1 - 0.0 - - 10 - - - -
20/04:30am 25.7 CALM 0 0 1008.1 - 0.0 - - 10 - - - -
20/04:00am 25.7 CALM 0 0 1008.0 - 0.0 - - 10 - - - -
20/03:30am 25.7 CALM 0 0 1008.0 - 0.0 - - 10 - - - -
20/03:00am 25.9 CALM 0 0 1008.3 F 0.0 - Mostly clear 10 - - - -
20/02:30am 25.8 CALM 0 0 1008.6 - 0.0 - - 10 - - - -
20/02:00am 25.8 CALM 0 0 1008.8 - 0.0 - Partly cloudy 10 - - - -
20/01:30am 26.1 SW 1 3 1009.1 - 0.0 - Partly cloudy 10 - - - -
20/01:00am 26.1 CALM 0 0 1009.3 - 0.0 - - 10 - - - -
20/12:30am 26.5 CALM 0 0 1009.7 - 0.0 - - 10 - - - -
20/12:00am 27.4 NNE 3 4 1009.8 R 0.0 - - 10 - - - -
 
Date/Time
CST
Temp
°C
Wind Pressure Rain since
9am
mm
Weather Cloud Vis
km
Sea
Height
m
Swell
Dir  Spd
kts
Gust
kts
hPa Trend Height
m
Period
s
Dir
19/11:30pm 27.4 N 4 5 1009.8 - 0.0 - - 10 - - - -
19/11:00pm 27.4 NE 5 6 1010.1 - 0.0 - - 10 - - - -
19/10:30pm 27.6 NE 4 5 1010.2 - 0.0 - - 10 - - - -
19/10:00pm 27.8 NNE 4 5 1010.1 - 0.0 - - 10 - - - -
19/09:30pm 27.8 N 3 4 1009.8 - 0.0 - - 10 - - - -
19/09:00pm 28.0 NNE 4 4 1009.4 R 0.0 - - 10 - - - -
19/08:30pm 28.1 N 4 4 1009.0 - 0.0 - - 10 - - - -
19/08:00pm 28.1 NNE 5 5 1008.7 - 0.0 - - 10 - - - -
19/07:30pm 28.3 NE 4 6 1008.2 - 0.0 - - 10 - - - -
19/07:00pm 28.4 NE 5 6 1007.7 - 0.0 - - 10 - - - -
19/06:30pm 28.6 NE 5 6 1007.5 - 0.0 - - 10 - - - -
19/06:00pm 28.9 NE 6 8 1007.1 F 0.0 - Mostly clear 10 - - - -
19/05:30pm 29.1 NNE 7 9 1007.2 - 0.0 - - 10 - - - -
19/05:00pm 29.4 NNE 8 11 1006.7 - 0.0 - - 10 - - - -
19/04:30pm 29.7 N 7 9 1006.9 - 0.0 - Partly cloudy 10 - - - -
19/04:00pm 30.0 N 10 13 1006.6 - 0.0 - Partly cloudy 10 - - - -
19/03:30pm 31.3 N 9 12 1006.7 - 0.0 - - 10 - - - -
19/03:00pm 31.2 NNE 8 12 1007.1 S 0.0 - - 10 - - - -
19/02:30pm 31.9 NNE 10 14 1007.5 - 0.0 - Partly cloudy 10 - - - -
19/02:00pm 31.8 NNE 10 13 1007.7 - 0.0 - - 10 - - - -
19/01:30pm 32.1 NNE 11 15 1007.8 - 0.0 - - 10 - - - -
19/01:00pm 32.0 NNE 11 15 1008.3 - 0.0 - - 10 - - - -
19/12:30pm 31.8 NNE 11 17 1008.8 - 0.0 - - 10 - - - -
19/12:00pm 31.5 NNE 11 15 1009.0 S 0.0 - - 10 - - - -
19/11:30am 31.6 NNE 10 13 1009.4 - 0.0 - Partly cloudy 10 - - - -
19/11:00am 31.1 NNE 9 14 1009.7 - 0.0 - Partly cloudy 10 - - - -
19/10:30am 31.6 NNE 8 12 1009.9 - 0.0 - - 10 - - - -
19/10:00am 31.6 NNE 9 13 1010.0 - 0.0 - - 10 - - - -
19/09:30am 30.6 NE 7 11 1010.0 - 0.0 - - 10 - - - -
19/09:00am 30.3 NNE 10 13 1010.2 R 0.0 - Partly cloudy 10 - - - -
19/08:30am 29.6 NE 10 14 1010.0 - 0.0 - Partly cloudy 10 - - - -
19/08:00am 29.5 ENE 8 11 1009.8 - 0.0 - Partly cloudy 10 - - - -
19/07:30am 28.9 ENE 5 8 1009.4 - 0.0 - - 10 - - - -
19/07:00am 27.8 SSE 2 3 1009.1 - 0.0 - - 10 - - - -
19/06:30am 26.3 CALM 0 0 1008.8 - 0.0 - - 10 - - - -
19/06:00am 25.2 CALM 0 0 1008.5 F 0.0 - Mostly clear 10 - - - -
19/05:30am 25.2 CALM 0 0 1008.3 - 0.0 - - 10 - - - -
19/05:00am 25.3 CALM 0 0 1008.2 - 0.0 - - 10 - - - -
19/04:30am 25.2 CALM 0 0 1008.1 - 0.0 - - 10 - - - -
19/04:00am 25.2 SSW 1 3 1008.0 - 0.0 - - 10 - - - -
19/03:30am 25.1 SSW 3 4 1007.7 - 0.0 - - 10 - - - -
19/03:00am 25.3 WSW 2 4 1007.5 R 0.0 - - 10 - - - -
19/02:30am 26.0 N 1 3 1007.4 - 0.0 - - 10 - - - -
19/02:00am 26.6 NNE 4 5 1007.4 - 0.0 - - 10 - - - -
19/01:30am 26.9 NNE 5 6 1007.7 - 0.0 - - 10 - - - -
19/01:00am 26.0 CALM 0 0 1008.2 - 0.0 - - 10 - - - -
19/12:30am 27.0 NE 3 4 1008.6 - 0.0 - - 10 - - - -
19/12:00am 27.2 NNE 4 5 1008.7 F 0.0 - - 10 - - - -
 
Date/Time
CST
Temp
°C
Wind Pressure Rain since
9am
mm
Weather Cloud Vis
km
Sea
Height
m
Swell
Dir  Spd
kts
Gust
kts
hPa Trend Height
m
Period
s
Dir
18/11:30pm 27.2 NE 4 5 1009.1 - 0.0 - - 10 - - - -
18/11:00pm 27.2 NE 3 4 1009.3 - 0.0 - - 10 - - - -
18/10:30pm 27.3 NE 3 4 1009.3 - 0.0 - - 10 - - - -
18/10:00pm 27.3 CALM 0 0 1009.4 - 0.0 - - 10 - - - -
18/09:30pm 27.0 CALM 0 0 1009.3 - 0.0 - - 10 - - - -
18/09:00pm 27.2 SE 3 4 1009.2 R 0.0 - - 10 - - - -
18/08:30pm 27.4 SE 3 4 1008.7 - 0.0 - - 10 - - - -
18/08:00pm 27.9 ENE 4 5 1008.2 - 0.0 - - 10 - - - -
18/07:30pm 28.0 E 5 6 1007.7 - 0.0 - - 10 - - - -
18/07:00pm 28.4 E 5 7 1007.6 - 0.0 - - 10 - - - -
18/06:30pm 28.6 ENE 6 8 1007.6 - 0.0 - - 10 - - - -
18/06:00pm 28.8 E 8 11 1007.3 F 0.0 - Mostly clear 10 - - - -
18/05:30pm 29.3 E 10 14 1007.0 - 0.0 - Partly cloudy 10 - - - -
18/05:00pm 30.1 E 11 17 1007.1 - 0.0 - Partly cloudy 10 - - - -
18/04:30pm 30.5 E 10 15 1007.1 - 0.0 - Partly cloudy 10 - - - -
18/04:00pm 31.1 E 10 14 1007.0 - 0.0 - Partly cloudy 10 - - - -
18/03:30pm 30.9 E 9 13 1007.0 - 0.0 - Partly cloudy 10 - - - -
18/03:00pm 31.5 ENE 10 13 1007.3 F 0.0 - Mostly clear 10 - - - -
18/02:30pm 30.8 ENE 10 15 1007.6 - 0.0 - Partly cloudy 10 - - - -
18/02:00pm 32.0 E 10 14 1008.1 - 0.0 - Partly cloudy 10 - - - -
18/01:30pm 32.6 NE 11 16 1008.5 - 0.0 - Partly cloudy 10 - - - -
18/01:00pm 32.5 NE 11 16 1008.9 - 0.0 - Partly cloudy 10 - - - -
18/12:30pm 32.8 ENE 10 13 1009.2 - 0.0 - Partly cloudy 10 - - - -
18/12:00pm 31.7 ENE 11 15 1009.7 R 0.0 - Mostly clear 10 - - - -
18/11:30am 32.2 ENE 10 15 1010.0 - 0.0 - Partly cloudy 10 - - - -
18/11:00am 31.4 NE 10 15 1010.1 - 0.0 - Partly cloudy 10 - - - -
18/10:30am 31.7 ENE 9 13 1010.3 - 0.0 - - 10 - - - -
18/10:00am 31.8 NE 9 12 1010.5 - 0.0 - - 10 - - - -
18/09:30am 31.6 E 7 11 1010.4 - 0.0 - - 10 - - - -
18/09:00am 31.5 ESE 8 11 1010.4 R 0.0 - Mostly clear 10 - - - -
18/08:30am 30.5 E 8 11 1010.4 - 0.0 - - 10 - - - -
18/08:00am 29.7 ENE 9 11 1009.9 - 0.0 - Partly cloudy 10 - - - -
18/07:30am 29.0 ESE 5 7 1009.8 - 0.0 - - 10 - - - -
18/07:00am 27.1 CALM 0 0 1009.2 - 0.0 - - 10 - - - -
18/06:30am 25.5 SSW 2 5 1008.8 - 0.0 - - 10 - - - -
18/06:00am 25.1 CALM 0 0 1008.4 R 0.0 - - 10 - - - -
18/05:30am 25.3 NNE 2 5 1008.1 - 0.0 - - 10 - - - -
18/05:00am 25.1 CALM 0 0 1008.0 - 0.0 - - 10 - - - -
18/04:30am 25.1 CALM 0 0 1007.6 - 0.0 - - 10 - - - -
18/04:00am 25.1 CALM 0 0 1007.4 - 0.0 - - 10 - - - -
18/03:30am 25.4 CALM 0 0 1006.9 - 0.0 - - 10 - - - -
18/03:00am 25.2 SSE 3 4 1006.9 F 0.0 - - 10 - - - -
18/02:30am 25.3 S 3 5 1007.0 - 0.0 - - 10 - - - -
18/02:00am 25.6 CALM 0 0 1007.6 - 0.0 - - 10 - - - -
18/01:30am 25.6 SSW 3 4 1007.9 - 0.0 - - 10 - - - -
18/01:00am 25.8 SW 3 4 1008.0 - 0.0 - - 10 - - - -
18/12:30am 25.8 SSW 4 5 1008.4 - 0.0 - - 10 - - - -
18/12:00am 26.3 S 3 4 1009.0 S 0.0 - - 10 - - - -
 
Date/Time
CST
Temp
°C
Wind Pressure Rain since
9am
mm
Weather Cloud Vis
km
Sea
Height
m
Swell
Dir  Spd
kts
Gust
kts
hPa Trend Height
m
Period
s
Dir
17/11:30pm 26.9 ESE 2 4 1009.3 - 0.0 - - 10 - - - -
17/11:00pm 27.1 E 4 5 1009.4 - 0.0 - - 10 - - - -
17/10:30pm 26.9 ESE 4 6 1009.4 - 0.0 - - 10 - - - -
17/10:00pm 26.9 ESE 5 6 1009.5 - 0.0 - - 10 - - - -
17/09:30pm 26.7 SE 3 5 1009.2 - 0.0 - - 10 - - - -
17/09:00pm 27.0 SE 4 6 1009.1 R 0.0 - - 10 - - - -
17/08:30pm 27.4 ESE 4 6 1008.7 - 0.0 - - 10 - - - -
17/08:00pm 27.5 ESE 5 7 1008.5 - 0.0 - - 10 - - - -
17/07:30pm 27.8 ESE 5 7 1008.2 - 0.0 - - 10 - - - -
17/07:00pm 27.9 SE 7 9 1007.9 - 0.0 - - 10 - - - -
17/06:30pm 28.4 ESE 7 10 1007.5 - 0.0 - - 10 - - - -
17/06:00pm 28.9 E 8 11 1007.3 F 0.0 - Mostly clear 10 - - - -
17/05:30pm 29.2 ESE 9 11 1007.1 - 0.0 - Partly cloudy 10 - - - -
17/05:00pm 29.8 E 10 13 1006.8 - 0.0 - Partly cloudy 10 - - - -
17/04:30pm 29.9 E 11 14 1006.9 - 0.0 - Partly cloudy 10 - - - -
17/04:00pm 31.6 ESE 11 15 1006.8 - 0.0 - Partly cloudy 10 - - - -
17/03:30pm 31.9 E 11 16 1007.2 - 0.0 - Partly cloudy 10 - - - -
17/03:00pm 31.5 E 11 16 1007.3 R 0.0 - Mostly clear 10 - - - -
17/02:30pm 31.6 ESE 11 17 1007.5 - 0.0 - Partly cloudy 10 - - - -
17/02:00pm 32.8 ESE 10 15 1007.5 - 0.0 - Partly cloudy 10 - - - -
17/01:30pm 32.6 ESE 11 17 1007.9 - 0.0 - Partly cloudy 10 - - - -
17/01:00pm 32.2 ESE 9 14 1008.4 - 0.0 - Mostly clear 10 - - - -
17/12:30pm 31.9 E 9 14 1008.9 - 0.0 - Mostly clear 10 - - - -
17/12:00pm 31.7 ENE 10 16 1009.1 R 0.0 - Mostly clear 10 - - - -

Other Formats:

Comma delimited format used in spreadsheet applications
http://www.bom.gov.au/fwo/IDD60701/IDD60701.94150.axf

JavaScript Object Notation format (JSON) in row-major order
http://www.bom.gov.au/fwo/IDD60701/IDD60701.94150.json